メインページ
METAR-TAF:

METAR-TAF

空港 :

ロサンゼルス, カリフォルニア州, アメリカ合衆国

ロサンゼルス国際空港

緯度: 33-56-17N, 経度: 118-23-20W, 海抜: 38m

現時点の気象観測

当レポートは51分前の18:53(UTC)に作成
西/南西の風 11kt
気温 17°C
湿度 72%
気圧 1019 hPa
視程: 16.1km
高度1800ftの雲はほとんどない
高度4400ftの雲は散在している
高度7500ftの雲は散在している
高度17000ftの千切れ雲あり
高度23000ftの千切れ雲あり

METAR: KLAX 251853Z 24011KT 10SM FEW018 SCT044 SCT075 BKN170 BKN230 17/12 A3010 RMK AO2 SLP192 T01720122

時間: 12:44 (19:44 UTC)

予報

当レポートは2時間20分前の17:24(UTC)に作成
予報は25日の 18時(UTC)から 26日の 24時(UTC)まで有効
西/南西の風 8kt
視程: 10km
高度1500ftの雲はほとんどない
高度7000ftの千切れ雲あり
25日の 2000時(UTC)から
西の風 15kt、最大22ktの突風を伴う
視程: 10km
高度5000ftの千切れ雲あり
26日の 0200時(UTC)から
西の風 12kt
視程: 10km
高度15000ftの雲は散在している
26日の 0600時(UTC)から
変向風 3kt
視程: 10km
高度15000ftの雲は散在している
26日の 1100時(UTC)から
変向風 3kt
視程: 6.4km
高度15000ftの雲は散在している
26日の 1700時(UTC)から
変向風 3kt
視程: 10km
高度15000ftの千切れ雲あり
26日の 1900時(UTC)から
西の風 12kt
視程: 10km
高度15000ftの千切れ雲あり

TAF: KLAX 251724Z 2518/2624 24008KT P6SM FEW015 BKN070 FM252000 27015G22KT P6SM BKN050 FM260200 26012KT P6SM SCT150 FM260600 VRB03KT P6SM SCT150 FM261100 VRB03KT 4SM BR SCT150 FM261700 VRB03KT P6SM BKN150 FM261900 26012KT P6SM BKN150

4,000以上の空港の気象観測と天気予報(METAR報とTAF報)

利用可能な観測所は地図上に黄色い丸と赤い丸で示す。

丸の上にカーソルを重ねると観測所名を参照できる。

次にクリックすると気象観測と天気予報を参照できる。

マップの切り替え:黒色「×」印の緑ボタンをクリックして拡大、「-」印の緑ボタンをクリックして縮小、緑色の三角印をクリックして隣りの地図に切り替え


METAR-TAF: